ADDS METAR Data INFO
IDs: Format: Raw Decoded Include TAF

Data at: 1039 UTC 16 Jul 2018

KCFJ 161035Z AUTO 00000KT 1 3/4SM BR OVC070 20/20 A2996 RMK AO2 T02010201
KCFJ 161015Z AUTO 00000KT 2 1/2SM BR SCT070 20/20 A2996 RMK AO2 T02010201
KCFJ 160955Z AUTO 00000KT 3SM BR SCT030 SCT070 20/20 A2996 RMK AO2 T02020202
KCFJ 160935Z AUTO 00000KT 4SM BR CLR 21/21 A2996 RMK AO2 T02050205
KCFJ 160915Z AUTO 00000KT 4SM BR CLR 21/21 A2996 RMK AO2 T02060206
KCFJ 160855Z AUTO 00000KT 5SM BR SCT042 21/21 A2996 RMK AO2 T02110211
KCFJ 160835Z AUTO 00000KT 5SM BR SCT042 BKN065 21/21 A2996 RMK AO2 T02120212
KCFJ 160815Z AUTO 00000KT 7SM SCT042 OVC065 22/22 A2996 RMK AO2 T02170217
KCFJ 160755Z AUTO 00000KT 7SM OVC065 22/22 A2997 RMK AO2 T02180218
KCFJ 160735Z AUTO 00000KT 7SM OVC065 22/22 A2997 RMK AO2 T02190219
KCFJ 160715Z AUTO 00000KT 10SM OVC065 22/22 A2997 RMK AO2 T02180218
KCFJ 160655Z AUTO 00000KT 10SM BKN065 22/22 A2997 RMK AO2 T02150215
KCFJ 160635Z AUTO 00000KT 10SM SCT065 21/21 A2998 RMK AO2 T02100210
KCFJ 160615Z AUTO 00000KT 10SM CLR 21/21 A2998 RMK AO2 T02110211
KCFJ 160555Z AUTO 17003KT 10SM SCT055 21/21 A2999 RMK AO2 T02110211 10265 20205
KCFJ 160535Z AUTO 00000KT 10SM BKN055 22/22 A2999 RMK AO2 T02150215
KCFJ 160515Z AUTO 16003KT 10SM SCT043 BKN055 22/22 A2999 RMK AO2 T02180218
KCFJ 160455Z AUTO 13003KT 10SM SCT042 BKN055 22/22 A2999 RMK AO2 T02200220 402880205
KCFJ 160435Z AUTO 16003KT 10SM SCT042 BKN049 BKN055 22/22 A2999 RMK AO2 T02180218
KCFJ 160415Z AUTO 15003KT 10SM BKN040 OVC047 21/21 A2999 RMK AO2 T02140214
KCFJ 160355Z AUTO 00000KT 10SM SCT040 21/21 A2999 RMK AO2 T02050205
KCFJ 160335Z AUTO 00000KT 10SM CLR 21/21 A2998 RMK AO2 T02070207
KCFJ 160315Z AUTO 00000KT 10SM CLR 21/21 A2998 RMK AO2 T02090209
KCFJ 160255Z AUTO 00000KT 10SM CLR 22/22 A2999 RMK AO2 T02150215
KCFJ 160235Z AUTO 15003KT 10SM CLR 22/22 A2998 RMK AO2 T02200220
KCFJ 160215Z AUTO 00000KT 10SM CLR 22/22 A2997 RMK AO2 T02220222
KCFJ 160155Z AUTO 18003KT 10SM CLR 23/23 A2997 RMK AO2 T02250225
KCFJ 160135Z AUTO 16004KT 10SM CLR 23/23 A2997 RMK AO2 T02320229
KCFJ 160115Z AUTO 19005KT 10SM CLR 24/24 A2996 RMK AO2 T02400235
KCFJ 160055Z AUTO 22004KT 10SM SCT050 25/23 A2996 RMK AO2 T02470230
KCFJ 160035Z AUTO 23003KT 10SM BKN050 26/23 A2996 RMK AO2 T02560228
KCFJ 160015Z AUTO 20004KT 10SM SCT048 26/22 A2996 RMK AO2 T02630222
KCFJ 152355Z AUTO 19005KT 10SM SCT050 27/23 A2996 RMK AO2 T02660225 10288 20263
KCFJ 152335Z AUTO 22006KT 10SM CLR 27/22 A2996 RMK AO2 T02700220
KCFJ 152315Z AUTO 23006KT 10SM CLR 27/22 A2996 RMK AO2 T02710220
KCFJ 152255Z AUTO 25005KT 10SM SCT050 27/22 A2996 RMK AO2 T02730222
KCFJ 152235Z AUTO 24008KT 10SM SCT050 27/22 A2996 RMK AO2 T02720216
KCFJ 152215Z AUTO 23005KT 10SM SCT050 26/21 A2997 RMK AO2 T02630211
KCFJ 152155Z AUTO 23008G14KT 10SM SCT043 27/21 A2998 RMK AO2 T02730214
KCFJ 152135Z AUTO 22010G14KT 10SM SCT029 BKN039 BKN045 28/22 A2997 RMK AO2 T02790224
KCFJ 152115Z AUTO 22008KT 10SM BKN029 OVC035 28/23 A2998 RMK AO2 LTG DSNT E T02750228
KCFJ 152055Z AUTO 21008KT 10SM BKN029 BKN037 28/23 A2998 RMK AO2 LTG DSNT E T02760228
KCFJ 152035Z AUTO 23006KT 10SM SCT031 29/22 A2999 RMK AO2 T02850219
KCFJ 152015Z AUTO 21008KT 10SM CLR 28/22 A2999 RMK AO2 T02830222
KCFJ 151955Z AUTO 20009KT 10SM SCT032 SCT042 SCT050 29/23 A2999 RMK AO2 T02850228
KCFJ 151935Z AUTO 21009KT 10SM SCT032 SCT042 28/23 A2999 RMK AO2 T02820228
KCFJ 151915Z AUTO 20007KT 180V240 10SM SCT033 29/22 A3000 RMK AO2 T02860221
KCFJ 151855Z AUTO 21008KT 10SM SCT031 BKN037 28/22 A3000 RMK AO2 T02780221
KCFJ 151835Z AUTO 20006KT 10SM SCT034 SCT039 29/22 A3000 RMK AO2 T02850221
KCFJ 151815Z AUTO 20006KT 10SM SCT034 SCT039 SCT065 29/23 A3001 RMK AO2 T02870225
KCFJ 151755Z AUTO 21006KT 10SM SCT032 BKN039 BKN065 28/23 A3002 RMK AO2 LTG DSNT SW T02840227 10286 20212
KCFJ 151735Z AUTO 22006KT 10SM SCT032 SCT041 29/23 A3002 RMK AO2 T02850229
KCFJ 151715Z AUTO 22004KT 10SM SCT034 28/23 A3002 RMK AO2 T02820230
KCFJ 151655Z AUTO 19006KT 10SM CLR 28/23 A3001 RMK AO2 T02800227
KCFJ 151635Z AUTO 20004KT 10SM CLR 28/22 A3001 RMK AO2 T02760219
KCFJ 151615Z AUTO 23006KT 10SM CLR 27/22 A3001 RMK AO2 T02740220
KCFJ 151555Z AUTO 21007KT 10SM CLR 27/22 A3001 RMK AO2 T02690220
KCFJ 151535Z AUTO 21007KT 10SM CLR 27/22 A3001 RMK AO2 T02670219
KCFJ 151515Z AUTO 19004KT 10SM CLR 26/22 A3002 RMK AO2 T02630221
KCFJ 151455Z AUTO 20006KT 10SM CLR 26/23 A3002 RMK AO2 T02600226
KCFJ 151435Z AUTO 19006KT 10SM CLR 25/24 A3002 RMK AO2 T02500240
KCFJ 151415Z AUTO 19007KT 10SM CLR 24/24 A3003 RMK AO2 T02400240
KCFJ 151355Z AUTO 19005KT 10SM CLR 24/24 A3003 RMK AO2 T02380238
KCFJ 151335Z AUTO 00000KT 10SM CLR 23/23 A3003 RMK AO2 T02310231
KCFJ 151315Z AUTO 00000KT 5SM BR CLR 22/22 A3003 RMK AO2 T02230223
KCFJ 151255Z AUTO 00000KT 5SM BR SCT100 22/22 A3003 RMK AO2 T02180218
KCFJ 151235Z AUTO 00000KT 4SM BR SCT110 22/22 A3004 RMK AO2 T02150215
KCFJ 151215Z AUTO 00000KT 4SM BR OVC110 21/21 A3005 RMK AO2 T02130213
KCFJ 151155Z AUTO 00000KT 3SM BR OVC110 21/21 A3005 RMK AO2 T02120212 10212 20206
KCFJ 151135Z AUTO 00000KT 3SM BR OVC100 21/21 A3005 RMK AO2 T02120212
KCFJ 151115Z AUTO 20004KT 2 1/2SM BR OVC100 21/21 A3005 RMK AO2 T02100210
KCFJ 151055Z AUTO 00000KT 3SM BR OVC110 21/21 A3003 RMK AO2 T02080208
KCFJ 151035Z AUTO 00000KT 2 1/2SM VCTS BR OVC110 21/21 A3003 RMK AO2 T02070207
KCFJ 151015Z AUTO 00000KT 3SM BR BKN110 21/21 A3003 RMK AO2 T02090209
KCFJ 150955Z AUTO 00000KT 5SM BR BKN110 21/21 A3003 RMK AO2 LTG DSNT N AND S T02110211
KCFJ 150935Z AUTO 00000KT 7SM SCT120 21/21 A3003 RMK AO2 LTG DSNT S T02110211
KCFJ 150915Z AUTO 22003KT 5SM BR SCT120 21/21 A3003 RMK AO2 LTG DSNT S T02100210
KCFJ 150855Z AUTO 00000KT 4SM BR BKN120 21/21 A3003 RMK AO2 LTG DSNT S T02100210
KCFJ 150835Z AUTO 00000KT 5SM BR OVC110 21/21 A3003 RMK AO2 T02100210
KCFJ 150815Z AUTO 00000KT 5SM BR SCT110 21/21 A3003 RMK AO2 T02110211
KCFJ 150755Z AUTO 00000KT 5SM -DZ CLR 21/21 A3003 RMK AO2 T02080208
KCFJ 150735Z AUTO 00000KT 5SM BR SCT120 21/21 A3003 RMK AO2 T02100210
KCFJ 150715Z AUTO 00000KT 5SM BR SCT110 21/21 A3002 RMK AO2 T02080208
KCFJ 150655Z AUTO 00000KT 4SM BR CLR 21/21 A3000 RMK AO2 T02060206
KCFJ 150635Z AUTO 00000KT 4SM BR SCT100 21/21 A3001 RMK AO2 T02070207
KCFJ 150615Z AUTO 00000KT 5SM BR SCT100 SCT120 21/21 A3002 RMK AO2 T02100210
KCFJ 150555Z AUTO 13003KT 5SM BR SCT120 21/21 A3004 RMK AO2 T02100210 10252 20204
KCFJ 150535Z AUTO 00000KT 5SM BR CLR 21/21 A3005 RMK AO2 T02070207
KCFJ 150515Z AUTO 11003KT 5SM BR CLR 21/21 A3004 RMK AO2 T02090209
KCFJ 150455Z AUTO 00000KT 5SM BR CLR 21/21 A3004 RMK AO2 T02060206 402870162
KCFJ 150435Z AUTO 00000KT 5SM BR CLR 21/21 A3004 RMK AO2 T02080208
KCFJ 150415Z AUTO 00000KT 4SM BR CLR 21/21 A3003 RMK AO2 T02050205
KCFJ 150355Z AUTO 00000KT 7SM CLR 21/21 A3003 RMK AO2 T02050205
KCFJ 150335Z AUTO 00000KT 7SM CLR 21/21 A3003 RMK AO2 T02080208
KCFJ 150315Z AUTO 00000KT 7SM CLR 21/21 A3003 RMK AO2 T02130213
KCFJ 150255Z AUTO 00000KT 7SM CLR 21/21 A3003 RMK AO2 T02110211
KCFJ 150235Z AUTO 00000KT 10SM CLR 21/21 A3003 RMK AO2 T02140214
KCFJ 150215Z AUTO 00000KT 10SM CLR 22/22 A3004 RMK AO2 T02180218
KCFJ 150155Z AUTO 00000KT 10SM CLR 22/22 A3004 RMK AO2 T02210221
KCFJ 150135Z AUTO 00000KT 10SM CLR 22/22 A3004 RMK AO2 T02220222
KCFJ 150115Z AUTO 00000KT 10SM CLR 23/23 A3003 RMK AO2 T02260226
KCFJ 150055Z AUTO 00000KT 10SM CLR 23/23 A3004 RMK AO2 T02330233
KCFJ 150035Z AUTO 00000KT 10SM CLR 24/24 A3003 RMK AO2 T02390239
KCFJ 150015Z AUTO 00000KT 10SM CLR 25/25 A3003 RMK AO2 LTG DSNT W T02460246
KCFJ 142355Z AUTO 00000KT 10SM CLR 25/24 A3003 RMK AO2 LTG DSNT W T02530238 10287 20237
KCFJ 142335Z AUTO 00000KT 10SM CLR 26/23 A3003 RMK AO2 T02570229
KCFJ 142315Z AUTO 00000KT 10SM CLR 26/22 A3002 RMK AO2 T02550224
KCFJ 142255Z AUTO 03003KT 10SM CLR 25/23 A3001 RMK AO2 T02540225